sensor_id;sensor_type;location;lat;lon;timestamp;P1;durP1;ratioP1;P2;durP2;ratioP2
11046;SDS011;5576;50.008;10.596;2023-09-30T00:01:09;18.17;;;8.87;;
11046;SDS011;5576;50.008;10.596;2023-09-30T00:03:36;18.33;;;8.90;;
11046;SDS011;5576;50.008;10.596;2023-09-30T00:06:02;18.37;;;9.37;;
11046;SDS011;5576;50.008;10.596;2023-09-30T00:08:29;17.43;;;9.13;;
11046;SDS011;5576;50.008;10.596;2023-09-30T00:10:55;18.95;;;10.52;;
11046;SDS011;5576;50.008;10.596;2023-09-30T00:13:20;17.77;;;9.45;;
11046;SDS011;5576;50.008;10.596;2023-09-30T00:15:46;18.23;;;9.57;;
11046;SDS011;5576;50.008;10.596;2023-09-30T00:18:12;17.70;;;9.55;;
11046;SDS011;5576;50.008;10.596;2023-09-30T00:20:38;17.30;;;9.60;;
11046;SDS011;5576;50.008;10.596;2023-09-30T00:23:04;18.20;;;9.87;;
11046;SDS011;5576;50.008;10.596;2023-09-30T00:25:31;16.17;;;9.32;;
11046;SDS011;5576;50.008;10.596;2023-09-30T00:27:57;20.15;;;9.68;;
11046;SDS011;5576;50.008;10.596;2023-09-30T00:30:23;19.15;;;9.45;;
11046;SDS011;5576;50.008;10.596;2023-09-30T00:32:49;17.88;;;9.98;;
11046;SDS011;5576;50.008;10.596;2023-09-30T00:35:15;17.88;;;9.55;;
11046;SDS011;5576;50.008;10.596;2023-09-30T00:37:41;18.83;;;9.50;;
11046;SDS011;5576;50.008;10.596;2023-09-30T00:40:07;18.45;;;9.65;;
11046;SDS011;5576;50.008;10.596;2023-09-30T00:42:38;17.15;;;9.40;;
11046;SDS011;5576;50.008;10.596;2023-09-30T00:45:05;16.90;;;8.70;;
11046;SDS011;5576;50.008;10.596;2023-09-30T00:47:32;18.25;;;8.75;;
11046;SDS011;5576;50.008;10.596;2023-09-30T00:49:59;16.05;;;8.70;;
11046;SDS011;5576;50.008;10.596;2023-09-30T00:52:25;15.27;;;8.13;;
11046;SDS011;5576;50.008;10.596;2023-09-30T00:54:51;14.00;;;6.90;;
11046;SDS011;5576;50.008;10.596;2023-09-30T00:57:19;15.43;;;7.95;;
11046;SDS011;5576;50.008;10.596;2023-09-30T00:59:46;15.18;;;8.30;;
11046;SDS011;5576;50.008;10.596;2023-09-30T01:02:15;15.32;;;8.18;;
11046;SDS011;5576;50.008;10.596;2023-09-30T01:04:41;11.48;;;5.68;;
11046;SDS011;5576;50.008;10.596;2023-09-30T01:07:07;9.48;;;5.20;;
11046;SDS011;5576;50.008;10.596;2023-09-30T01:09:34;9.40;;;5.22;;
11046;SDS011;5576;50.008;10.596;2023-09-30T01:12:01;11.35;;;5.90;;
11046;SDS011;5576;50.008;10.596;2023-09-30T01:14:30;9.25;;;5.03;;
11046;SDS011;5576;50.008;10.596;2023-09-30T01:16:57;6.78;;;4.47;;
11046;SDS011;5576;50.008;10.596;2023-09-30T01:19:23;6.70;;;3.53;;
11046;SDS011;5576;50.008;10.596;2023-09-30T01:21:53;6.75;;;3.55;;
11046;SDS011;5576;50.008;10.596;2023-09-30T01:24:28;6.38;;;2.90;;
11046;SDS011;5576;50.008;10.596;2023-09-30T01:26:55;3.83;;;2.47;;
11046;SDS011;5576;50.008;10.596;2023-09-30T01:29:21;4.63;;;2.30;;
11046;SDS011;5576;50.008;10.596;2023-09-30T01:31:47;4.75;;;2.58;;
11046;SDS011;5576;50.008;10.596;2023-09-30T01:34:15;4.63;;;2.60;;
11046;SDS011;5576;50.008;10.596;2023-09-30T01:36:42;4.95;;;2.63;;
11046;SDS011;5576;50.008;10.596;2023-09-30T01:39:09;4.88;;;2.67;;
11046;SDS011;5576;50.008;10.596;2023-09-30T01:41:36;4.80;;;2.70;;
11046;SDS011;5576;50.008;10.596;2023-09-30T01:44:05;3.85;;;2.63;;
11046;SDS011;5576;50.008;10.596;2023-09-30T01:46:31;4.15;;;2.40;;
11046;SDS011;5576;50.008;10.596;2023-09-30T01:48:57;3.53;;;2.33;;
11046;SDS011;5576;50.008;10.596;2023-09-30T01:51:22;3.95;;;2.50;;
11046;SDS011;5576;50.008;10.596;2023-09-30T01:53:49;4.57;;;2.40;;
11046;SDS011;5576;50.008;10.596;2023-09-30T01:56:16;4.25;;;2.08;;
11046;SDS011;5576;50.008;10.596;2023-09-30T01:58:41;3.83;;;2.10;;
11046;SDS011;5576;50.008;10.596;2023-09-30T02:01:08;4.53;;;2.03;;
11046;SDS011;5576;50.008;10.596;2023-09-30T02:03:34;4.30;;;2.00;;
11046;SDS011;5576;50.008;10.596;2023-09-30T02:06:00;2.60;;;1.60;;
11046;SDS011;5576;50.008;10.596;2023-09-30T02:08:25;2.85;;;2.03;;
11046;SDS011;5576;50.008;10.596;2023-09-30T02:10:51;3.17;;;1.90;;
11046;SDS011;5576;50.008;10.596;2023-09-30T02:13:18;3.70;;;1.88;;
11046;SDS011;5576;50.008;10.596;2023-09-30T02:15:44;3.22;;;1.60;;
11046;SDS011;5576;50.008;10.596;2023-09-30T02:18:10;3.20;;;1.90;;
11046;SDS011;5576;50.008;10.596;2023-09-30T02:20:36;2.90;;;1.70;;
11046;SDS011;5576;50.008;10.596;2023-09-30T02:23:05;2.70;;;1.80;;
11046;SDS011;5576;50.008;10.596;2023-09-30T02:25:31;3.47;;;1.80;;
11046;SDS011;5576;50.008;10.596;2023-09-30T02:27:58;3.30;;;1.67;;
11046;SDS011;5576;50.008;10.596;2023-09-30T02:30:25;3.15;;;1.70;;
11046;SDS011;5576;50.008;10.596;2023-09-30T02:32:52;2.97;;;1.63;;
11046;SDS011;5576;50.008;10.596;2023-09-30T02:35:18;4.50;;;1.90;;
11046;SDS011;5576;50.008;10.596;2023-09-30T02:37:45;3.60;;;1.88;;
11046;SDS011;5576;50.008;10.596;2023-09-30T02:40:11;3.83;;;1.80;;
11046;SDS011;5576;50.008;10.596;2023-09-30T02:42:40;2.92;;;1.52;;
11046;SDS011;5576;50.008;10.596;2023-09-30T02:45:06;2.80;;;1.90;;
11046;SDS011;5576;50.008;10.596;2023-09-30T02:47:34;3.10;;;1.70;;
11046;SDS011;5576;50.008;10.596;2023-09-30T02:50:00;3.67;;;1.88;;
11046;SDS011;5576;50.008;10.596;2023-09-30T02:52:26;4.28;;;2.10;;
11046;SDS011;5576;50.008;10.596;2023-09-30T02:54:54;2.65;;;1.70;;
11046;SDS011;5576;50.008;10.596;2023-09-30T02:57:20;2.78;;;1.70;;
11046;SDS011;5576;50.008;10.596;2023-09-30T02:59:46;5.23;;;2.20;;
11046;SDS011;5576;50.008;10.596;2023-09-30T03:02:13;4.38;;;1.80;;
11046;SDS011;5576;50.008;10.596;2023-09-30T03:04:40;2.85;;;1.95;;
11046;SDS011;5576;50.008;10.596;2023-09-30T03:07:07;3.90;;;2.00;;
11046;SDS011;5576;50.008;10.596;2023-09-30T03:09:33;3.77;;;2.10;;
11046;SDS011;5576;50.008;10.596;2023-09-30T03:12:01;3.45;;;2.17;;
11046;SDS011;5576;50.008;10.596;2023-09-30T03:14:29;3.60;;;1.90;;
11046;SDS011;5576;50.008;10.596;2023-09-30T03:16:56;3.15;;;2.00;;
11046;SDS011;5576;50.008;10.596;2023-09-30T03:19:23;4.05;;;1.98;;
11046;SDS011;5576;50.008;10.596;2023-09-30T03:21:49;3.40;;;2.10;;
11046;SDS011;5576;50.008;10.596;2023-09-30T03:24:15;4.05;;;2.10;;
11046;SDS011;5576;50.008;10.596;2023-09-30T03:26:41;3.13;;;2.05;;
11046;SDS011;5576;50.008;10.596;2023-09-30T03:29:09;3.70;;;2.10;;
11046;SDS011;5576;50.008;10.596;2023-09-30T03:31:35;3.72;;;2.55;;
11046;SDS011;5576;50.008;10.596;2023-09-30T03:34:02;3.55;;;2.10;;
11046;SDS011;5576;50.008;10.596;2023-09-30T03:36:29;3.40;;;2.30;;
11046;SDS011;5576;50.008;10.596;2023-09-30T03:38:56;3.50;;;2.03;;
11046;SDS011;5576;50.008;10.596;2023-09-30T03:41:25;3.92;;;1.88;;
11046;SDS011;5576;50.008;10.596;2023-09-30T03:43:50;3.17;;;1.90;;
11046;SDS011;5576;50.008;10.596;2023-09-30T03:46:16;2.97;;;2.00;;
11046;SDS011;5576;50.008;10.596;2023-09-30T03:48:42;3.88;;;2.13;;
11046;SDS011;5576;50.008;10.596;2023-09-30T03:51:12;3.47;;;2.30;;
11046;SDS011;5576;50.008;10.596;2023-09-30T03:53:39;3.85;;;2.05;;
11046;SDS011;5576;50.008;10.596;2023-09-30T03:56:06;3.47;;;2.15;;
11046;SDS011;5576;50.008;10.596;2023-09-30T03:58:32;4.07;;;2.25;;
11046;SDS011;5576;50.008;10.596;2023-09-30T04:00:58;4.72;;;2.70;;
11046;SDS011;5576;50.008;10.596;2023-09-30T04:03:25;5.25;;;3.15;;
11046;SDS011;5576;50.008;10.596;2023-09-30T04:05:52;4.35;;;2.25;;
11046;SDS011;5576;50.008;10.596;2023-09-30T04:08:18;2.97;;;2.17;;
11046;SDS011;5576;50.008;10.596;2023-09-30T04:10:44;4.95;;;2.40;;
11046;SDS011;5576;50.008;10.596;2023-09-30T04:13:10;4.05;;;2.33;;
11046;SDS011;5576;50.008;10.596;2023-09-30T04:15:36;4.88;;;2.58;;
11046;SDS011;5576;50.008;10.596;2023-09-30T04:18:03;5.40;;;2.70;;
11046;SDS011;5576;50.008;10.596;2023-09-30T04:20:30;4.25;;;2.40;;
11046;SDS011;5576;50.008;10.596;2023-09-30T04:22:56;2.92;;;1.98;;
11046;SDS011;5576;50.008;10.596;2023-09-30T04:25:22;4.75;;;2.17;;
11046;SDS011;5576;50.008;10.596;2023-09-30T04:27:51;4.53;;;2.17;;
11046;SDS011;5576;50.008;10.596;2023-09-30T04:30:17;3.83;;;2.33;;
11046;SDS011;5576;50.008;10.596;2023-09-30T04:32:43;4.80;;;2.30;;
11046;SDS011;5576;50.008;10.596;2023-09-30T04:35:09;3.92;;;2.25;;
11046;SDS011;5576;50.008;10.596;2023-09-30T04:37:35;5.15;;;2.30;;
11046;SDS011;5576;50.008;10.596;2023-09-30T04:40:03;3.90;;;1.98;;
11046;SDS011;5576;50.008;10.596;2023-09-30T04:42:33;4.03;;;2.20;;
11046;SDS011;5576;50.008;10.596;2023-09-30T04:45:02;4.07;;;2.20;;
11046;SDS011;5576;50.008;10.596;2023-09-30T04:47:29;3.30;;;2.00;;
11046;SDS011;5576;50.008;10.596;2023-09-30T04:49:55;4.57;;;2.40;;
11046;SDS011;5576;50.008;10.596;2023-09-30T04:52:23;6.78;;;3.38;;
11046;SDS011;5576;50.008;10.596;2023-09-30T04:54:52;5.88;;;3.20;;
11046;SDS011;5576;50.008;10.596;2023-09-30T04:57:18;6.78;;;3.20;;
11046;SDS011;5576;50.008;10.596;2023-09-30T04:59:44;6.00;;;3.03;;
11046;SDS011;5576;50.008;10.596;2023-09-30T05:02:11;6.88;;;4.20;;
11046;SDS011;5576;50.008;10.596;2023-09-30T05:04:40;8.15;;;4.88;;
11046;SDS011;5576;50.008;10.596;2023-09-30T05:07:07;6.43;;;3.83;;
11046;SDS011;5576;50.008;10.596;2023-09-30T05:09:33;5.03;;;3.22;;
11046;SDS011;5576;50.008;10.596;2023-09-30T05:11:59;5.00;;;3.37;;
11046;SDS011;5576;50.008;10.596;2023-09-30T05:14:24;7.03;;;5.68;;
11046;SDS011;5576;50.008;10.596;2023-09-30T05:16:50;7.57;;;5.60;;
11046;SDS011;5576;50.008;10.596;2023-09-30T05:19:16;7.53;;;5.50;;
11046;SDS011;5576;50.008;10.596;2023-09-30T05:21:42;5.40;;;3.80;;
11046;SDS011;5576;50.008;10.596;2023-09-30T05:24:09;4.30;;;2.80;;
11046;SDS011;5576;50.008;10.596;2023-09-30T05:26:34;5.00;;;2.60;;
11046;SDS011;5576;50.008;10.596;2023-09-30T05:29:00;4.93;;;2.57;;
11046;SDS011;5576;50.008;10.596;2023-09-30T05:31:26;4.53;;;3.08;;
11046;SDS011;5576;50.008;10.596;2023-09-30T05:33:51;4.80;;;2.80;;
11046;SDS011;5576;50.008;10.596;2023-09-30T05:36:17;4.35;;;2.20;;
11046;SDS011;5576;50.008;10.596;2023-09-30T05:38:43;4.03;;;2.10;;
11046;SDS011;5576;50.008;10.596;2023-09-30T05:41:08;4.30;;;2.10;;
11046;SDS011;5576;50.008;10.596;2023-09-30T05:43:34;4.28;;;2.20;;
11046;SDS011;5576;50.008;10.596;2023-09-30T05:46:00;4.43;;;2.43;;
11046;SDS011;5576;50.008;10.596;2023-09-30T05:48:25;4.50;;;2.13;;
11046;SDS011;5576;50.008;10.596;2023-09-30T05:50:51;4.18;;;2.30;;
11046;SDS011;5576;50.008;10.596;2023-09-30T05:53:17;3.40;;;2.10;;
11046;SDS011;5576;50.008;10.596;2023-09-30T05:55:43;5.27;;;2.53;;
11046;SDS011;5576;50.008;10.596;2023-09-30T05:58:12;4.15;;;2.30;;
11046;SDS011;5576;50.008;10.596;2023-09-30T06:00:39;4.97;;;2.63;;
11046;SDS011;5576;50.008;10.596;2023-09-30T06:03:07;6.13;;;2.47;;
11046;SDS011;5576;50.008;10.596;2023-09-30T06:05:33;6.25;;;3.58;;
11046;SDS011;5576;50.008;10.596;2023-09-30T06:08:00;5.97;;;4.53;;
11046;SDS011;5576;50.008;10.596;2023-09-30T06:10:28;7.07;;;4.63;;
11046;SDS011;5576;50.008;10.596;2023-09-30T06:12:54;5.05;;;3.25;;
11046;SDS011;5576;50.008;10.596;2023-09-30T06:15:21;7.18;;;3.88;;
11046;SDS011;5576;50.008;10.596;2023-09-30T06:17:51;10.32;;;6.65;;
11046;SDS011;5576;50.008;10.596;2023-09-30T06:20:19;16.05;;;10.48;;
11046;SDS011;5576;50.008;10.596;2023-09-30T06:22:47;8.32;;;5.75;;
11046;SDS011;5576;50.008;10.596;2023-09-30T06:25:15;10.95;;;7.03;;
11046;SDS011;5576;50.008;10.596;2023-09-30T06:27:43;9.25;;;5.70;;
11046;SDS011;5576;50.008;10.596;2023-09-30T06:30:09;9.55;;;5.50;;
11046;SDS011;5576;50.008;10.596;2023-09-30T06:32:36;11.50;;;7.15;;
11046;SDS011;5576;50.008;10.596;2023-09-30T06:35:02;7.70;;;4.95;;
11046;SDS011;5576;50.008;10.596;2023-09-30T06:37:29;5.85;;;3.58;;
11046;SDS011;5576;50.008;10.596;2023-09-30T06:39:55;5.30;;;3.40;;
11046;SDS011;5576;50.008;10.596;2023-09-30T06:42:21;5.10;;;2.95;;
11046;SDS011;5576;50.008;10.596;2023-09-30T06:44:47;6.47;;;2.90;;
11046;SDS011;5576;50.008;10.596;2023-09-30T06:47:13;6.55;;;3.00;;
11046;SDS011;5576;50.008;10.596;2023-09-30T06:49:38;5.07;;;3.20;;
11046;SDS011;5576;50.008;10.596;2023-09-30T06:52:04;5.15;;;2.90;;
11046;SDS011;5576;50.008;10.596;2023-09-30T06:54:31;5.63;;;2.80;;
11046;SDS011;5576;50.008;10.596;2023-09-30T06:56:56;6.47;;;2.87;;
11046;SDS011;5576;50.008;10.596;2023-09-30T06:59:22;4.53;;;2.70;;
11046;SDS011;5576;50.008;10.596;2023-09-30T07:01:50;4.78;;;2.58;;
11046;SDS011;5576;50.008;10.596;2023-09-30T07:04:16;7.40;;;3.15;;
11046;SDS011;5576;50.008;10.596;2023-09-30T07:06:41;4.73;;;2.90;;
11046;SDS011;5576;50.008;10.596;2023-09-30T07:09:07;6.13;;;2.83;;
11046;SDS011;5576;50.008;10.596;2023-09-30T07:11:35;4.80;;;2.65;;
11046;SDS011;5576;50.008;10.596;2023-09-30T07:14:01;7.57;;;2.70;;
11046;SDS011;5576;50.008;10.596;2023-09-30T07:16:27;5.10;;;2.80;;
11046;SDS011;5576;50.008;10.596;2023-09-30T07:18:53;6.10;;;2.70;;
11046;SDS011;5576;50.008;10.596;2023-09-30T07:21:19;6.78;;;2.70;;
11046;SDS011;5576;50.008;10.596;2023-09-30T07:23:44;6.10;;;2.73;;
11046;SDS011;5576;50.008;10.596;2023-09-30T07:26:10;5.13;;;2.67;;
11046;SDS011;5576;50.008;10.596;2023-09-30T07:31:05;5.55;;;2.60;;
11046;SDS011;5576;50.008;10.596;2023-09-30T07:33:32;6.70;;;2.80;;
11046;SDS011;5576;50.008;10.596;2023-09-30T07:35:57;5.73;;;2.80;;
11046;SDS011;5576;50.008;10.596;2023-09-30T07:38:23;5.85;;;3.03;;
11046;SDS011;5576;50.008;10.596;2023-09-30T07:40:49;7.50;;;3.45;;
11046;SDS011;5576;50.008;10.596;2023-09-30T07:43:15;7.25;;;3.45;;
11046;SDS011;5576;50.008;10.596;2023-09-30T07:45:43;4.97;;;2.80;;
11046;SDS011;5576;50.008;10.596;2023-09-30T07:48:08;5.32;;;2.50;;
11046;SDS011;5576;50.008;10.596;2023-09-30T07:50:35;5.20;;;2.80;;
11046;SDS011;5576;50.008;10.596;2023-09-30T07:53:02;5.85;;;2.70;;
11046;SDS011;5576;50.008;10.596;2023-09-30T07:55:27;5.23;;;2.67;;
11046;SDS011;5576;50.008;10.596;2023-09-30T07:57:53;4.53;;;2.50;;
11046;SDS011;5576;50.008;10.596;2023-09-30T08:00:21;5.18;;;2.80;;
11046;SDS011;5576;50.008;10.596;2023-09-30T08:02:47;5.20;;;2.45;;
11046;SDS011;5576;50.008;10.596;2023-09-30T08:05:13;6.33;;;2.83;;
11046;SDS011;5576;50.008;10.596;2023-09-30T08:07:38;5.63;;;2.60;;
11046;SDS011;5576;50.008;10.596;2023-09-30T08:10:05;6.10;;;3.20;;
11046;SDS011;5576;50.008;10.596;2023-09-30T08:12:32;7.38;;;3.00;;
11046;SDS011;5576;50.008;10.596;2023-09-30T08:14:58;6.27;;;2.80;;
11046;SDS011;5576;50.008;10.596;2023-09-30T08:17:24;4.78;;;2.55;;
11046;SDS011;5576;50.008;10.596;2023-09-30T08:19:49;5.53;;;2.60;;
11046;SDS011;5576;50.008;10.596;2023-09-30T08:22:15;6.03;;;2.50;;
11046;SDS011;5576;50.008;10.596;2023-09-30T08:24:41;6.23;;;2.87;;
11046;SDS011;5576;50.008;10.596;2023-09-30T08:27:06;6.17;;;2.90;;
11046;SDS011;5576;50.008;10.596;2023-09-30T08:29:33;6.80;;;3.15;;
11046;SDS011;5576;50.008;10.596;2023-09-30T08:32:01;5.55;;;2.70;;
11046;SDS011;5576;50.008;10.596;2023-09-30T08:34:27;6.28;;;2.80;;
11046;SDS011;5576;50.008;10.596;2023-09-30T08:36:54;6.15;;;2.70;;
11046;SDS011;5576;50.008;10.596;2023-09-30T08:39:19;6.03;;;2.90;;
11046;SDS011;5576;50.008;10.596;2023-09-30T08:41:45;5.83;;;2.60;;
11046;SDS011;5576;50.008;10.596;2023-09-30T08:44:11;5.38;;;2.72;;
11046;SDS011;5576;50.008;10.596;2023-09-30T08:46:38;5.88;;;2.58;;
11046;SDS011;5576;50.008;10.596;2023-09-30T08:49:05;6.35;;;2.63;;
11046;SDS011;5576;50.008;10.596;2023-09-30T08:51:32;6.40;;;2.72;;
11046;SDS011;5576;50.008;10.596;2023-09-30T08:53:58;5.85;;;2.50;;
11046;SDS011;5576;50.008;10.596;2023-09-30T08:56:27;5.10;;;2.60;;
11046;SDS011;5576;50.008;10.596;2023-09-30T08:58:58;6.73;;;2.70;;
11046;SDS011;5576;50.008;10.596;2023-09-30T09:01:26;4.93;;;2.55;;
11046;SDS011;5576;50.008;10.596;2023-09-30T09:03:53;4.88;;;2.40;;
11046;SDS011;5576;50.008;10.596;2023-09-30T09:06:21;4.55;;;2.40;;
11046;SDS011;5576;50.008;10.596;2023-09-30T09:08:47;5.07;;;2.40;;
11046;SDS011;5576;50.008;10.596;2023-09-30T09:11:13;5.15;;;2.60;;
11046;SDS011;5576;50.008;10.596;2023-09-30T09:13:55;5.30;;;2.35;;
11046;SDS011;5576;50.008;10.596;2023-09-30T09:16:21;5.60;;;2.47;;
11046;SDS011;5576;50.008;10.596;2023-09-30T09:18:48;5.72;;;2.50;;
11046;SDS011;5576;50.008;10.596;2023-09-30T09:21:15;6.07;;;2.30;;
11046;SDS011;5576;50.008;10.596;2023-09-30T09:23:43;5.57;;;2.35;;
11046;SDS011;5576;50.008;10.596;2023-09-30T09:26:10;4.03;;;2.20;;
11046;SDS011;5576;50.008;10.596;2023-09-30T09:28:49;5.75;;;2.65;;
11046;SDS011;5576;50.008;10.596;2023-09-30T09:31:22;5.28;;;2.28;;
11046;SDS011;5576;50.008;10.596;2023-09-30T09:33:51;4.57;;;2.13;;
11046;SDS011;5576;50.008;10.596;2023-09-30T09:36:17;5.07;;;2.37;;
11046;SDS011;5576;50.008;10.596;2023-09-30T09:38:46;3.90;;;2.17;;
11046;SDS011;5576;50.008;10.596;2023-09-30T09:41:14;5.93;;;2.13;;
11046;SDS011;5576;50.008;10.596;2023-09-30T09:43:41;5.13;;;2.20;;
11046;SDS011;5576;50.008;10.596;2023-09-30T09:46:08;4.32;;;2.10;;
11046;SDS011;5576;50.008;10.596;2023-09-30T09:48:35;4.22;;;1.98;;
11046;SDS011;5576;50.008;10.596;2023-09-30T09:51:02;3.95;;;1.90;;
11046;SDS011;5576;50.008;10.596;2023-09-30T09:53:29;3.72;;;1.98;;
11046;SDS011;5576;50.008;10.596;2023-09-30T09:55:56;4.43;;;2.25;;
11046;SDS011;5576;50.008;10.596;2023-09-30T09:58:25;4.27;;;2.17;;
11046;SDS011;5576;50.008;10.596;2023-09-30T10:00:52;3.47;;;1.90;;
11046;SDS011;5576;50.008;10.596;2023-09-30T10:03:18;4.17;;;1.97;;
11046;SDS011;5576;50.008;10.596;2023-09-30T10:05:44;3.83;;;1.88;;
11046;SDS011;5576;50.008;10.596;2023-09-30T10:08:13;4.10;;;1.90;;
11046;SDS011;5576;50.008;10.596;2023-09-30T10:10:42;3.35;;;1.80;;
11046;SDS011;5576;50.008;10.596;2023-09-30T10:13:49;2.78;;;1.60;;
11046;SDS011;5576;50.008;10.596;2023-09-30T10:15:56;3.42;;;1.80;;
11046;SDS011;5576;50.008;10.596;2023-09-30T10:18:22;3.50;;;1.67;;
11046;SDS011;5576;50.008;10.596;2023-09-30T10:20:47;4.10;;;1.77;;
11046;SDS011;5576;50.008;10.596;2023-09-30T10:25:45;3.15;;;1.85;;
11046;SDS011;5576;50.008;10.596;2023-09-30T10:36:31;3.22;;;1.85;;
11046;SDS011;5576;50.008;10.596;2023-09-30T10:39:01;6.45;;;2.05;;
11046;SDS011;5576;50.008;10.596;2023-09-30T10:46:58;3.58;;;1.80;;
11046;SDS011;5576;50.008;10.596;2023-09-30T10:51:53;4.22;;;1.90;;
11046;SDS011;5576;50.008;10.596;2023-09-30T10:54:22;4.38;;;2.10;;
11046;SDS011;5576;50.008;10.596;2023-09-30T10:56:49;3.95;;;1.85;;
11046;SDS011;5576;50.008;10.596;2023-09-30T10:59:19;4.38;;;1.90;;
11046;SDS011;5576;50.008;10.596;2023-09-30T11:01:45;3.45;;;1.90;;
11046;SDS011;5576;50.008;10.596;2023-09-30T11:04:11;4.50;;;2.10;;
11046;SDS011;5576;50.008;10.596;2023-09-30T11:06:39;3.60;;;2.10;;
11046;SDS011;5576;50.008;10.596;2023-09-30T11:09:07;4.88;;;2.10;;
11046;SDS011;5576;50.008;10.596;2023-09-30T11:11:41;4.82;;;2.10;;
11046;SDS011;5576;50.008;10.596;2023-09-30T11:16:56;4.40;;;1.90;;
11046;SDS011;5576;50.008;10.596;2023-09-30T11:19:24;3.83;;;2.03;;
11046;SDS011;5576;50.008;10.596;2023-09-30T11:21:53;3.72;;;2.20;;
11046;SDS011;5576;50.008;10.596;2023-09-30T11:24:20;6.32;;;2.58;;
11046;SDS011;5576;50.008;10.596;2023-09-30T11:26:46;4.47;;;2.20;;
11046;SDS011;5576;50.008;10.596;2023-09-30T11:29:17;3.58;;;2.00;;
11046;SDS011;5576;50.008;10.596;2023-09-30T11:31:44;3.23;;;1.90;;
11046;SDS011;5576;50.008;10.596;2023-09-30T11:34:12;3.17;;;2.20;;
11046;SDS011;5576;50.008;10.596;2023-09-30T11:36:39;4.45;;;2.10;;
11046;SDS011;5576;50.008;10.596;2023-09-30T11:39:07;4.80;;;2.25;;
11046;SDS011;5576;50.008;10.596;2023-09-30T11:41:36;5.38;;;2.30;;
11046;SDS011;5576;50.008;10.596;2023-09-30T11:44:05;4.65;;;2.22;;
11046;SDS011;5576;50.008;10.596;2023-09-30T11:46:46;4.90;;;2.40;;
11046;SDS011;5576;50.008;10.596;2023-09-30T11:51:54;5.57;;;2.53;;
11046;SDS011;5576;50.008;10.596;2023-09-30T11:54:21;4.28;;;2.55;;
11046;SDS011;5576;50.008;10.596;2023-09-30T11:56:48;5.95;;;2.60;;
11046;SDS011;5576;50.008;10.596;2023-09-30T11:59:16;4.80;;;2.70;;
11046;SDS011;5576;50.008;10.596;2023-09-30T12:01:44;6.53;;;3.10;;
11046;SDS011;5576;50.008;10.596;2023-09-30T12:04:14;5.18;;;2.83;;
11046;SDS011;5576;50.008;10.596;2023-09-30T12:06:42;4.65;;;2.72;;
11046;SDS011;5576;50.008;10.596;2023-09-30T12:09:08;6.63;;;2.60;;
11046;SDS011;5576;50.008;10.596;2023-09-30T12:11:38;6.93;;;2.90;;
11046;SDS011;5576;50.008;10.596;2023-09-30T12:14:04;6.97;;;2.90;;
11046;SDS011;5576;50.008;10.596;2023-09-30T12:16:31;5.85;;;2.83;;
11046;SDS011;5576;50.008;10.596;2023-09-30T12:18:57;5.40;;;2.90;;
11046;SDS011;5576;50.008;10.596;2023-09-30T12:21:23;5.93;;;2.88;;
11046;SDS011;5576;50.008;10.596;2023-09-30T12:23:48;4.83;;;3.00;;
11046;SDS011;5576;50.008;10.596;2023-09-30T12:26:16;5.68;;;2.95;;
11046;SDS011;5576;50.008;10.596;2023-09-30T12:28:45;5.72;;;3.05;;
11046;SDS011;5576;50.008;10.596;2023-09-30T12:31:11;5.68;;;2.80;;
11046;SDS011;5576;50.008;10.596;2023-09-30T12:33:38;6.47;;;3.78;;
11046;SDS011;5576;50.008;10.596;2023-09-30T12:36:05;6.00;;;3.60;;
11046;SDS011;5576;50.008;10.596;2023-09-30T12:38:32;5.22;;;3.00;;
11046;SDS011;5576;50.008;10.596;2023-09-30T12:40:58;6.40;;;3.63;;
11046;SDS011;5576;50.008;10.596;2023-09-30T12:43:25;6.28;;;3.50;;
11046;SDS011;5576;50.008;10.596;2023-09-30T12:45:51;5.43;;;3.50;;
11046;SDS011;5576;50.008;10.596;2023-09-30T12:48:17;6.80;;;3.60;;
11046;SDS011;5576;50.008;10.596;2023-09-30T12:50:43;5.73;;;3.37;;
11046;SDS011;5576;50.008;10.596;2023-09-30T12:53:09;7.18;;;3.70;;
11046;SDS011;5576;50.008;10.596;2023-09-30T12:55:35;6.25;;;3.78;;
11046;SDS011;5576;50.008;10.596;2023-09-30T12:58:01;5.87;;;3.40;;
11046;SDS011;5576;50.008;10.596;2023-09-30T13:00:27;5.65;;;3.40;;
11046;SDS011;5576;50.008;10.596;2023-09-30T13:02:56;5.40;;;3.05;;
11046;SDS011;5576;50.008;10.596;2023-09-30T13:05:23;5.60;;;3.50;;
11046;SDS011;5576;50.008;10.596;2023-09-30T13:07:49;6.57;;;3.90;;
11046;SDS011;5576;50.008;10.596;2023-09-30T13:10:14;6.00;;;3.77;;
11046;SDS011;5576;50.008;10.596;2023-09-30T13:12:40;5.93;;;3.63;;
11046;SDS011;5576;50.008;10.596;2023-09-30T13:15:06;6.80;;;3.58;;
11046;SDS011;5576;50.008;10.596;2023-09-30T13:17:34;6.45;;;3.47;;
11046;SDS011;5576;50.008;10.596;2023-09-30T13:20:00;5.70;;;3.67;;
11046;SDS011;5576;50.008;10.596;2023-09-30T13:22:30;5.63;;;3.42;;
11046;SDS011;5576;50.008;10.596;2023-09-30T13:24:56;7.00;;;3.90;;
11046;SDS011;5576;50.008;10.596;2023-09-30T13:27:22;7.47;;;3.80;;
11046;SDS011;5576;50.008;10.596;2023-09-30T13:29:48;6.35;;;3.78;;
11046;SDS011;5576;50.008;10.596;2023-09-30T13:32:13;7.10;;;3.87;;
11046;SDS011;5576;50.008;10.596;2023-09-30T13:34:39;5.83;;;3.80;;
11046;SDS011;5576;50.008;10.596;2023-09-30T13:37:05;7.63;;;3.97;;
11046;SDS011;5576;50.008;10.596;2023-09-30T13:39:30;6.78;;;4.30;;
11046;SDS011;5576;50.008;10.596;2023-09-30T13:41:56;6.57;;;3.70;;
11046;SDS011;5576;50.008;10.596;2023-09-30T13:44:22;7.18;;;3.75;;
11046;SDS011;5576;50.008;10.596;2023-09-30T13:46:48;6.47;;;4.00;;
11046;SDS011;5576;50.008;10.596;2023-09-30T13:49:14;6.57;;;3.97;;
11046;SDS011;5576;50.008;10.596;2023-09-30T13:51:39;6.65;;;3.92;;
11046;SDS011;5576;50.008;10.596;2023-09-30T13:54:05;6.13;;;4.00;;
11046;SDS011;5576;50.008;10.596;2023-09-30T13:56:33;7.30;;;4.20;;
11046;SDS011;5576;50.008;10.596;2023-09-30T13:58:58;6.88;;;4.00;;
11046;SDS011;5576;50.008;10.596;2023-09-30T14:01:27;5.82;;;3.83;;
11046;SDS011;5576;50.008;10.596;2023-09-30T14:03:52;6.53;;;3.70;;
11046;SDS011;5576;50.008;10.596;2023-09-30T14:06:21;5.70;;;3.80;;
11046;SDS011;5576;50.008;10.596;2023-09-30T14:08:46;7.05;;;3.90;;
11046;SDS011;5576;50.008;10.596;2023-09-30T14:11:12;6.25;;;3.88;;
11046;SDS011;5576;50.008;10.596;2023-09-30T14:13:38;6.80;;;3.93;;
11046;SDS011;5576;50.008;10.596;2023-09-30T14:16:05;7.28;;;4.22;;
11046;SDS011;5576;50.008;10.596;2023-09-30T14:18:32;6.75;;;4.22;;
11046;SDS011;5576;50.008;10.596;2023-09-30T14:20:58;5.80;;;3.63;;
11046;SDS011;5576;50.008;10.596;2023-09-30T14:23:24;6.38;;;4.35;;
11046;SDS011;5576;50.008;10.596;2023-09-30T14:25:53;6.00;;;3.97;;
11046;SDS011;5576;50.008;10.596;2023-09-30T14:28:20;6.50;;;4.00;;
11046;SDS011;5576;50.008;10.596;2023-09-30T14:30:46;7.40;;;4.38;;
11046;SDS011;5576;50.008;10.596;2023-09-30T14:33:15;6.43;;;4.20;;
11046;SDS011;5576;50.008;10.596;2023-09-30T14:35:41;8.15;;;4.32;;
11046;SDS011;5576;50.008;10.596;2023-09-30T14:38:09;8.73;;;4.50;;
11046;SDS011;5576;50.008;10.596;2023-09-30T14:40:37;6.57;;;4.25;;
11046;SDS011;5576;50.008;10.596;2023-09-30T14:43:07;8.25;;;4.50;;
11046;SDS011;5576;50.008;10.596;2023-09-30T14:45:37;6.78;;;3.97;;
11046;SDS011;5576;50.008;10.596;2023-09-30T14:48:04;7.30;;;4.20;;
11046;SDS011;5576;50.008;10.596;2023-09-30T14:50:32;6.35;;;4.43;;
11046;SDS011;5576;50.008;10.596;2023-09-30T14:52:58;7.80;;;4.50;;
11046;SDS011;5576;50.008;10.596;2023-09-30T14:55:24;7.80;;;4.65;;
11046;SDS011;5576;50.008;10.596;2023-09-30T14:57:50;7.17;;;4.60;;
11046;SDS011;5576;50.008;10.596;2023-09-30T15:00:15;8.07;;;4.55;;
11046;SDS011;5576;50.008;10.596;2023-09-30T15:02:42;8.57;;;4.25;;
11046;SDS011;5576;50.008;10.596;2023-09-30T15:05:08;7.10;;;4.32;;
11046;SDS011;5576;50.008;10.596;2023-09-30T15:07:34;7.35;;;4.50;;
11046;SDS011;5576;50.008;10.596;2023-09-30T15:10:03;8.32;;;4.40;;